createdAt,value
2023-03-30T00:00:52.639Z,1.63
2023-03-30T00:06:16.213Z,1.75
2023-03-30T00:11:39.051Z,1.37
2023-03-30T00:17:04.559Z,1.58
2023-03-30T00:22:29.739Z,1.19
2023-03-30T00:27:55.589Z,1.00
2023-03-30T00:33:47.183Z,1.42
2023-03-30T00:39:09.063Z,1.00
2023-03-30T00:44:34.359Z,1.41
2023-03-30T00:50:23.726Z,1.25
2023-03-30T00:55:44.809Z,1.25
2023-03-30T01:01:05.824Z,1.52
2023-03-30T01:06:27.766Z,1.15
2023-03-30T01:11:46.354Z,1.53
2023-03-30T01:17:10.240Z,1.15
2023-03-30T01:22:33.311Z,1.48
2023-03-30T01:28:10.495Z,1.39
2023-03-30T01:34:04.749Z,1.30
2023-03-30T01:39:38.199Z,1.39
2023-03-30T01:45:04.649Z,1.43
2023-03-30T01:50:29.183Z,1.16
2023-03-30T01:55:52.005Z,1.41
2023-03-30T02:01:14.115Z,1.29
2023-03-30T02:06:37.561Z,1.50
2023-03-30T02:12:02.335Z,1.37
2023-03-30T02:17:22.479Z,1.39
2023-03-30T02:23:07.192Z,1.58
2023-03-30T02:28:26.816Z,1.20
2023-03-30T02:33:52.572Z,1.78
2023-03-30T02:39:27.375Z,1.14
2023-03-30T02:45:16.885Z,1.65
2023-03-30T02:50:44.337Z,1.19
2023-03-30T02:56:09.732Z,1.27
2023-03-30T03:01:30.939Z,1.36
2023-03-30T03:06:56.865Z,1.73
2023-03-30T03:12:22.326Z,1.19
2023-03-30T03:17:46.667Z,1.41
2023-03-30T03:23:11.825Z,1.52
2023-03-30T03:29:37.778Z,1.72
2023-03-30T03:35:01.553Z,1.55
2023-03-30T03:40:26.406Z,1.30
2023-03-30T03:45:52.252Z,1.59
2023-03-30T03:51:16.733Z,1.33
2023-03-30T03:56:35.615Z,1.30
2023-03-30T04:01:58.305Z,1.50
2023-03-30T04:07:23.064Z,1.81
2023-03-30T04:13:04.572Z,1.71
2023-03-30T04:18:28.359Z,1.38
2023-03-30T04:23:50.057Z,1.56
2023-03-30T04:29:16.311Z,1.48
2023-03-30T04:34:42.677Z,1.33
2023-03-30T04:40:29.023Z,1.64
2023-03-30T04:45:52.980Z,1.66
2023-03-30T04:51:15.075Z,2.14
2023-03-30T04:56:40.482Z,2.15
2023-03-30T05:02:04.905Z,1.79
2023-03-30T05:07:29.916Z,2.59
2023-03-30T05:12:52.612Z,1.60
2023-03-30T05:18:41.188Z,2.14
2023-03-30T05:24:21.453Z,1.98
2023-03-30T05:29:44.933Z,2.06
2023-03-30T05:35:08.106Z,2.24
2023-03-30T05:40:33.937Z,1.99
2023-03-30T05:46:01.331Z,2.47
2023-03-30T05:51:28.705Z,2.31
2023-03-30T05:57:17.316Z,3.54
2023-03-30T06:02:40.587Z,2.86
2023-03-30T06:08:07.017Z,2.78
2023-03-30T06:13:32.175Z,2.57
2023-03-30T06:18:56.754Z,1.84
2023-03-30T06:24:28.440Z,2.44
2023-03-30T06:29:53.017Z,2.67
2023-03-30T06:35:17.556Z,2.33
2023-03-30T06:40:35.743Z,2.59
2023-03-30T06:46:26.514Z,2.52
2023-03-30T06:51:47.124Z,2.14
2023-03-30T06:57:14.701Z,2.46
2023-03-30T07:02:40.523Z,2.59
2023-03-30T07:08:04.942Z,2.68
2023-03-30T07:13:29.592Z,2.93
2023-03-30T07:18:55.136Z,2.90
2023-03-30T07:24:14.715Z,2.88
2023-03-30T07:29:36.334Z,2.58
2023-03-30T07:35:00.255Z,2.99
2023-03-30T07:40:40.926Z,2.54
2023-03-30T07:46:05.398Z,2.65
2023-03-30T07:51:28.261Z,2.44
2023-03-30T07:57:18.479Z,2.70
2023-03-30T08:02:42.659Z,2.39
2023-03-30T08:08:04.639Z,2.24
2023-03-30T08:13:29.146Z,2.28
2023-03-30T08:18:54.115Z,2.58
2023-03-30T08:24:17.562Z,2.49
2023-03-30T08:29:42.909Z,2.29
2023-03-30T08:35:44.474Z,2.14
2023-03-30T08:41:08.981Z,1.81
2023-03-30T08:47:10.263Z,2.23
2023-03-30T08:52:35.714Z,2.38
2023-03-30T08:58:00.161Z,2.33
2023-03-30T09:03:22.292Z,1.98
2023-03-30T09:09:05.411Z,2.08
2023-03-30T09:14:28.514Z,2.19
2023-03-30T09:19:54.239Z,2.21
2023-03-30T09:25:15.775Z,2.35
2023-03-30T09:30:41.020Z,2.37
2023-03-30T09:36:06.437Z,2.28
2023-03-30T09:41:35.005Z,2.09
2023-03-30T09:47:12.129Z,2.32
2023-03-30T09:52:37.333Z,2.12
2023-03-30T09:58:02.689Z,2.06
2023-03-30T10:03:30.566Z,2.08
2023-03-30T10:08:56.907Z,2.13
2023-03-30T10:14:20.614Z,2.03
2023-03-30T10:19:47.807Z,2.09
2023-03-30T10:25:10.823Z,2.04
2023-03-30T10:30:32.702Z,2.06
2023-03-30T10:35:58.874Z,2.11
2023-03-30T10:41:25.672Z,2.31
2023-03-30T10:46:50.959Z,1.42
2023-03-30T10:52:16.311Z,0.72
2023-03-30T10:57:41.226Z,1.17
2023-03-30T11:03:22.625Z,1.17
2023-03-30T11:09:01.866Z,1.14
2023-03-30T11:14:24.550Z,1.07
2023-03-30T11:19:50.554Z,1.07
2023-03-30T11:25:15.491Z,0.84
2023-03-30T11:30:42.370Z,0.79
2023-03-30T11:36:08.459Z,1.18
2023-03-30T11:41:33.976Z,0.95
2023-03-30T11:46:58.744Z,0.95
2023-03-30T11:52:25.632Z,1.15
2023-03-30T11:57:52.299Z,1.04
2023-03-30T12:03:14.732Z,0.94
2023-03-30T12:08:56.177Z,1.26
2023-03-30T12:14:31.353Z,1.09
2023-03-30T12:20:10.878Z,0.87
2023-03-30T12:25:46.269Z,0.95
2023-03-30T12:31:21.005Z,0.94
2023-03-30T12:36:59.307Z,0.76
2023-03-30T12:42:20.824Z,0.79
2023-03-30T12:47:45.691Z,0.82
2023-03-30T12:53:18.677Z,0.89
2023-03-30T12:58:56.777Z,0.80
2023-03-30T13:04:40.485Z,0.81
2023-03-30T13:10:03.396Z,0.49
2023-03-30T13:15:35.841Z,0.60
2023-03-30T13:21:00.290Z,1.28
2023-03-30T13:26:35.542Z,0.53
2023-03-30T13:32:03.544Z,0.57
2023-03-30T13:37:29.603Z,0.56
2023-03-30T13:43:08.416Z,0.80
2023-03-30T13:48:32.727Z,0.51
2023-03-30T13:53:57.836Z,0.61
2023-03-30T13:59:22.090Z,0.69
2023-03-30T14:04:43.641Z,0.60
2023-03-30T14:10:09.145Z,0.69
2023-03-30T14:15:35.560Z,0.70
2023-03-30T14:21:01.691Z,0.70
2023-03-30T14:26:29.299Z,0.60
2023-03-30T14:32:06.674Z,0.61
2023-03-30T14:37:21.293Z,0.59
2023-03-30T14:42:45.832Z,0.52
2023-03-30T14:48:04.822Z,0.66
2023-03-30T14:53:25.109Z,0.75
2023-03-30T14:58:50.306Z,0.31
2023-03-30T15:04:11.978Z,0.54
2023-03-30T15:09:53.640Z,0.67
2023-03-30T15:15:18.577Z,0.56
2023-03-30T15:20:42.564Z,0.39
2023-03-30T15:26:27.712Z,1.19
2023-03-30T15:32:06.751Z,0.75
2023-03-30T15:37:29.197Z,0.78
2023-03-30T15:43:08.601Z,0.63
2023-03-30T15:48:28.395Z,0.61
2023-03-30T15:54:35.748Z,0.78
2023-03-30T15:59:58.848Z,0.59
2023-03-30T16:05:24.574Z,0.54
2023-03-30T16:10:49.148Z,0.64
2023-03-30T16:16:47.599Z,0.63
2023-03-30T16:22:11.541Z,0.73
2023-03-30T16:27:37.530Z,0.92
2023-03-30T16:33:02.640Z,0.58
2023-03-30T16:38:28.216Z,1.33
2023-03-30T16:43:53.845Z,0.82
2023-03-30T16:49:18.623Z,0.58
2023-03-30T16:54:43.694Z,0.34
2023-03-30T17:00:07.828Z,0.46
2023-03-30T17:05:35.796Z,0.42
2023-03-30T17:11:00.726Z,0.47
2023-03-30T17:16:43.387Z,0.39
2023-03-30T17:22:31.165Z,0.52
2023-03-30T17:27:51.484Z,0.45
2023-03-30T17:33:16.360Z,0.62
2023-03-30T17:38:36.700Z,0.55
2023-03-30T17:43:55.112Z,1.27
2023-03-30T17:49:15.214Z,0.89
2023-03-30T17:54:55.660Z,0.74
2023-03-30T18:00:39.833Z,0.72
2023-03-30T18:06:00.319Z,0.59
2023-03-30T18:11:24.806Z,0.77
2023-03-30T18:16:50.507Z,0.83
2023-03-30T18:22:15.587Z,0.78
2023-03-30T18:27:40.314Z,0.70
2023-03-30T18:33:04.223Z,0.68
2023-03-30T18:38:27.864Z,0.66
2023-03-30T18:43:52.227Z,0.71
2023-03-30T18:49:12.373Z,0.69
2023-03-30T18:54:34.542Z,0.52
2023-03-30T18:59:57.875Z,0.71
2023-03-30T19:05:18.766Z,0.74
2023-03-30T19:10:42.185Z,0.54
2023-03-30T19:16:04.626Z,0.39
2023-03-30T19:21:27.694Z,0.40
2023-03-30T19:42:35.810Z,1.34
2023-03-30T19:48:23.616Z,0.43
2023-03-30T19:54:11.869Z,0.47
2023-03-30T19:59:35.830Z,1.45
2023-03-30T20:04:59.440Z,1.83
2023-03-30T20:10:23.712Z,0.82
2023-03-30T20:15:48.749Z,0.90
2023-03-30T20:21:15.997Z,0.92
2023-03-30T20:26:43.231Z,1.22
2023-03-30T20:32:27.777Z,0.90
2023-03-30T20:37:51.249Z,1.00
2023-03-30T20:43:30.688Z,0.59
2023-03-30T20:48:55.845Z,0.59
2023-03-30T20:54:15.271Z,0.86
2023-03-30T20:59:36.860Z,0.57
2023-03-30T21:05:01.410Z,0.77
2023-03-30T21:10:27.103Z,1.19
2023-03-30T21:15:51.568Z,0.85
2023-03-30T21:21:18.153Z,0.73
2023-03-30T21:26:42.801Z,0.56
2023-03-30T21:32:07.494Z,0.54
2023-03-30T21:37:31.731Z,0.57
2023-03-30T21:42:57.222Z,0.77
2023-03-30T21:48:22.291Z,1.57
2023-03-30T21:53:47.006Z,0.56
2023-03-30T21:59:11.618Z,0.83
2023-03-30T22:04:34.422Z,0.60
2023-03-30T22:10:00.613Z,0.94
2023-03-30T22:15:26.680Z,2.54
2023-03-30T22:20:50.831Z,1.00
2023-03-30T22:26:37.217Z,0.49
2023-03-30T22:31:59.990Z,0.42
2023-03-30T22:37:23.762Z,0.21
2023-03-30T22:42:48.980Z,0.15
2023-03-30T22:48:11.532Z,0.49
2023-03-30T22:53:34.659Z,0.03
2023-03-30T22:58:59.973Z,0.00
2023-03-30T23:04:23.895Z,0.15
2023-03-30T23:09:48.239Z,0.07
2023-03-30T23:15:09.993Z,0.04
2023-03-30T23:20:35.401Z,0.24
2023-03-30T23:25:57.081Z,0.38
2023-03-30T23:31:22.139Z,0.07
2023-03-30T23:36:46.698Z,0.06
2023-03-30T23:42:10.172Z,0.00
2023-03-30T23:47:34.552Z,0.07
2023-03-30T23:52:53.014Z,0.01
2023-03-30T23:58:13.483Z,0.09
